Rockford, IL

1:38 AM CDT on August 05, 2015 (GMT -0500)
Greenlee Estates | | Change Station
CLOSE
Current Station
Personal Weather Station
Location: Winnebago, IL
Elevation: 850 ft
Nearby Weather Stations

Elev 850 ft 42.26 °N, 89.23 °W | Updated 11 seconds ago

Partly Cloudy
Partly Cloudy
61.7 °F
Feels Like 61.7 °F
N
0.0
Wind Variable Wind from WNW
Gusts 0.0 mph

Today
High -- | Low -- °F
--% Chance of Precip.
Yesterday
High -- | Low -- °F
Precip. -- in
5:53 AM 8:11 PM
Waning Gibbous, 70% visible
Pressure 30.04 in
Visibility 10.0 miles
Clouds Scattered Clouds 25000 ft
Dew Point 47 °F
Humidity 58%
Rainfall 0.00 in
Snow Depth Not available.
UV 0.0 out of 12
Pollen 7.20 out of 12
Air Quality Not available.
Flu Activity Not available.
METAR KRFD 050554Z 00000KT 10SM SCT250 17/14 A3005 RMK AO2 SLP173 T01670139 10244 20161 402780133 51002

More Conditions Fewer Conditions

Pressure 30.04 in
Visibility 10.0 miles
Clouds Scattered Clouds 25000 ft
Dew Point 47 °F
Humidity 58%
Rainfall 0.00 in
Snow Depth Not available.
UV 0.0 out of 12
Pollen 7.20 out of 12
Air Quality Not available.
Flu Activity Not available.
METAR KRFD 050554Z 00000KT 10SM SCT250 17/14 A3005 RMK AO2 SLP173 T01670139 10244 20161 402780133 51002

More Conditions Fewer Conditions

10-Day Weather Forecast

×

Almanac

Astronomy

Aug. 05, 2015 Rise Set
Actual Time
Civil Twilight
Nautical Twilight
Astronomical Twilight
Moon
Length of Visible Light
Length of Day
Tomorrow will be .
, % of the Moon is Illuminated

Today's Extremes

State Highs State Lows

Community

WunderPhotos

Upload Photos

1,844,105 photos uploaded!

WunderBlogs® & News

Nearby

Air Quality

  Air Quality AQ Index Pollutant
Not available.

Snow Depth

Station Depth Elevation

Earthquake Activity

City Distance Mag. Time & Date
Minimum magnitude displayed is 2.5.

Coastal Water Temperatures

Place Temperature

Stations

Nearby Weather Stations

Station Location Temp. Windchill Dew Point Humidity Wind Precip. Elev Updated Type